createdAt,value
2023-01-27T00:04:52.288Z,74.90
2023-01-27T00:10:01.290Z,76.20
2023-01-27T00:15:13.170Z,79.40
2023-01-27T00:20:39.005Z,84.00
2023-01-27T00:25:51.037Z,76.50
2023-01-27T00:30:59.531Z,72.40
2023-01-27T00:36:13.774Z,72.10
2023-01-27T00:41:29.223Z,70.70
2023-01-27T00:52:00.116Z,66.30
2023-01-27T00:57:18.518Z,68.00
2023-01-27T01:02:33.827Z,67.20
2023-01-27T01:07:53.849Z,67.90
2023-01-27T01:13:10.314Z,68.20
2023-01-27T01:18:26.999Z,64.30
2023-01-27T01:23:49.755Z,62.40
2023-01-27T01:28:57.902Z,64.30
2023-01-27T01:34:17.695Z,71.70
2023-01-27T01:39:31.249Z,71.30
2023-01-27T01:44:52.997Z,73.20
2023-01-27T01:50:05.874Z,67.50
2023-01-27T01:55:17.083Z,63.50
2023-01-27T02:00:33.325Z,61.90
2023-01-27T02:05:50.202Z,61.90
2023-01-27T02:11:12.149Z,66.00
2023-01-27T02:16:19.982Z,64.80
2023-01-27T02:21:27.256Z,63.80
2023-01-27T02:26:38.355Z,67.70
2023-01-27T02:31:45.545Z,65.40
2023-01-27T02:36:57.396Z,65.90
2023-01-27T02:42:08.355Z,70.80
2023-01-27T02:47:15.426Z,74.20
2023-01-27T02:52:23.224Z,74.70
2023-01-27T02:57:30.400Z,71.10
2023-01-27T03:03:00.034Z,74.20
2023-01-27T03:08:07.014Z,71.70
2023-01-27T03:13:14.042Z,74.00
2023-01-27T03:18:22.606Z,78.10
2023-01-27T03:23:29.778Z,70.70
2023-01-27T03:28:37.100Z,71.80
2023-01-27T03:33:57.388Z,79.60
2023-01-27T03:39:28.869Z,83.30
2023-01-27T03:44:53.817Z,84.70
2023-01-27T03:50:00.794Z,85.50
2023-01-27T03:55:09.591Z,87.60
2023-01-27T04:00:18.150Z,91.10
2023-01-27T04:05:42.841Z,95.60
2023-01-27T04:11:09.853Z,96.10
2023-01-27T04:16:17.146Z,86.00
2023-01-27T04:21:24.545Z,100.10
2023-01-27T04:26:34.546Z,98.10
2023-01-27T04:31:42.689Z,97.00
2023-01-27T04:36:49.815Z,87.90
2023-01-27T04:41:56.997Z,99.60
2023-01-27T04:47:04.248Z,90.60
2023-01-27T04:52:11.106Z,100.10
2023-01-27T04:57:17.828Z,93.90
2023-01-27T05:02:26.576Z,98.40
2023-01-27T05:07:33.639Z,90.40
2023-01-27T05:12:40.603Z,58.70
2023-01-27T05:17:48.316Z,33.90
2023-01-27T05:23:15.885Z,32.40
2023-01-27T05:28:22.842Z,27.40
2023-01-27T05:33:29.840Z,29.80
2023-01-27T05:38:37.157Z,30.70
2023-01-27T05:43:45.829Z,30.40
2023-01-27T05:48:54.912Z,31.10
2023-01-27T05:54:02.078Z,35.40
2023-01-27T05:59:12.934Z,34.40
2023-01-27T06:04:19.886Z,36.90
2023-01-27T06:09:26.787Z,40.30
2023-01-27T06:14:33.857Z,34.50
2023-01-27T06:19:40.741Z,36.70
2023-01-27T06:24:47.594Z,35.60
2023-01-27T06:29:54.534Z,37.00
2023-01-27T06:35:01.551Z,35.70
2023-01-27T06:40:10.326Z,34.40
2023-01-27T06:45:17.273Z,33.90
2023-01-27T06:50:24.897Z,32.60
2023-01-27T06:55:32.123Z,32.20
2023-01-27T07:00:39.997Z,31.70
2023-01-27T07:05:47.010Z,29.20
2023-01-27T07:10:53.897Z,30.40
2023-01-27T07:16:01.661Z,27.90
2023-01-27T07:21:09.293Z,30.00
2023-01-27T07:26:24.963Z,28.10
2023-01-27T07:31:32.364Z,24.80
2023-01-27T07:36:39.564Z,28.90
2023-01-27T07:41:49.019Z,25.00
2023-01-27T07:46:56.473Z,25.30
2023-01-27T07:52:03.421Z,29.10
2023-01-27T07:57:34.162Z,32.90
2023-01-27T08:02:54.510Z,33.30
2023-01-27T08:08:13.725Z,33.90
2023-01-27T08:19:28.230Z,30.60
2023-01-27T08:24:58.764Z,32.10
2023-01-27T08:30:21.515Z,32.00
2023-01-27T08:35:51.856Z,33.70
2023-01-27T08:41:12.365Z,31.20
2023-01-27T08:46:49.314Z,33.30
2023-01-27T08:52:01.099Z,34.70
2023-01-27T08:57:24.809Z,32.90
2023-01-27T09:02:39.518Z,34.10
2023-01-27T09:07:57.209Z,32.10
2023-01-27T09:13:18.644Z,28.60
2023-01-27T09:18:34.627Z,31.10
2023-01-27T09:23:45.390Z,31.50
2023-01-27T09:28:59.455Z,29.90
2023-01-27T09:34:11.210Z,34.00
2023-01-27T09:39:20.241Z,33.20
2023-01-27T09:44:43.323Z,36.40
2023-01-27T09:50:05.966Z,34.30
2023-01-27T09:55:23.398Z,33.40
2023-01-27T10:00:39.758Z,35.10
2023-01-27T10:06:10.162Z,35.40
2023-01-27T10:11:28.466Z,34.50
2023-01-27T10:17:04.406Z,33.60
2023-01-27T10:22:20.990Z,34.60
2023-01-27T10:27:31.807Z,32.80
2023-01-27T10:32:46.543Z,33.00
2023-01-27T10:38:07.042Z,30.30
2023-01-27T10:43:37.507Z,57.80
2023-01-27T10:49:05.360Z,66.60
2023-01-27T10:54:35.990Z,67.00
2023-01-27T11:00:51.324Z,68.20
2023-01-27T11:05:43.864Z,62.90
2023-01-27T11:11:12.958Z,68.50
2023-01-27T11:21:43.138Z,73.20
2023-01-27T11:27:07.136Z,76.40
2023-01-27T11:32:34.060Z,78.30
2023-01-27T11:37:45.611Z,83.30
2023-01-27T11:42:58.354Z,78.10
2023-01-27T11:48:18.605Z,79.50
2023-01-27T11:53:40.545Z,76.20
2023-01-27T11:59:05.197Z,77.30
2023-01-27T12:04:29.511Z,74.30
2023-01-27T12:09:50.335Z,74.60
2023-01-27T12:15:06.698Z,70.30
2023-01-27T12:20:42.977Z,69.50
2023-01-27T12:26:10.952Z,70.10
2023-01-27T12:31:43.164Z,68.00
2023-01-27T12:37:14.044Z,72.20
2023-01-27T12:42:43.452Z,69.10
2023-01-27T12:48:18.303Z,68.40
2023-01-27T12:53:37.052Z,66.10
2023-01-27T12:58:58.621Z,75.00
2023-01-27T13:04:17.949Z,70.70
2023-01-27T13:09:42.223Z,74.40
2023-01-27T13:14:55.917Z,73.40
2023-01-27T13:20:19.045Z,74.70
2023-01-27T13:25:38.115Z,74.10
2023-01-27T13:30:52.731Z,72.30
2023-01-27T13:36:17.182Z,73.90
2023-01-27T13:41:30.871Z,74.40
2023-01-27T13:46:47.524Z,72.40
2023-01-27T13:52:10.129Z,76.50
2023-01-27T13:57:53.700Z,76.30
2023-01-27T14:03:31.546Z,74.80
2023-01-27T14:08:56.537Z,71.90
2023-01-27T14:14:29.989Z,62.90
2023-01-27T14:19:53.951Z,61.30
2023-01-27T14:25:09.415Z,58.30
2023-01-27T14:30:24.338Z,49.30
2023-01-27T14:35:43.994Z,49.00
2023-01-27T14:41:09.220Z,48.70
2023-01-27T14:46:40.691Z,51.50
2023-01-27T14:51:55.819Z,38.60
2023-01-27T14:57:39.101Z,46.50
2023-01-27T15:02:59.316Z,46.40
2023-01-27T15:08:37.302Z,47.60
2023-01-27T15:14:21.204Z,51.10
2023-01-27T15:19:44.841Z,53.70
2023-01-27T15:25:28.072Z,58.20
2023-01-27T15:31:08.172Z,60.50
2023-01-27T15:36:32.267Z,55.70
2023-01-27T15:41:52.002Z,57.70
2023-01-27T15:47:10.276Z,60.00
2023-01-27T15:52:30.065Z,57.10
2023-01-27T15:57:40.233Z,61.50
2023-01-27T16:02:53.565Z,59.00
2023-01-27T16:08:03.792Z,58.10
2023-01-27T16:13:25.614Z,54.00
2023-01-27T16:18:54.163Z,48.90
2023-01-27T16:24:06.697Z,44.50
2023-01-27T16:29:35.514Z,47.20
2023-01-27T16:34:44.347Z,51.70
2023-01-27T16:39:56.404Z,49.30
2023-01-27T16:45:16.980Z,48.20
2023-01-27T16:50:37.765Z,48.30
2023-01-27T16:56:00.186Z,51.00
2023-01-27T17:01:24.724Z,48.90
2023-01-27T17:06:32.831Z,46.30
2023-01-27T17:11:42.955Z,45.60
2023-01-27T17:16:51.440Z,42.40
2023-01-27T17:22:01.081Z,41.80
2023-01-27T17:27:15.847Z,44.20
2023-01-27T17:32:31.593Z,43.00
2023-01-27T17:37:44.797Z,46.50
2023-01-27T17:43:08.557Z,52.40
2023-01-27T17:48:38.710Z,44.70
2023-01-27T17:53:46.657Z,46.60
2023-01-27T17:59:01.176Z,46.30
2023-01-27T18:04:14.541Z,48.20
2023-01-27T18:09:28.589Z,49.10
2023-01-27T18:14:37.083Z,62.10
2023-01-27T18:19:53.373Z,58.10
2023-01-27T18:25:21.638Z,52.10
2023-01-27T18:30:30.107Z,49.50
2023-01-27T18:35:41.176Z,50.40
2023-01-27T18:40:53.638Z,49.40
2023-01-27T18:46:02.656Z,47.30
2023-01-27T18:51:13.539Z,46.00
2023-01-27T18:56:20.706Z,49.60
2023-01-27T19:01:28.033Z,49.50
2023-01-27T19:06:35.176Z,52.20
2023-01-27T19:11:42.401Z,50.60
2023-01-27T19:16:49.536Z,57.60
2023-01-27T19:21:56.549Z,51.00
2023-01-27T19:27:04.359Z,50.90
2023-01-27T19:32:15.404Z,50.70
2023-01-27T19:37:23.276Z,49.00
2023-01-27T19:42:30.515Z,48.50
2023-01-27T19:47:37.760Z,48.10
2023-01-27T19:52:45.055Z,46.80
2023-01-27T19:57:53.273Z,47.90
2023-01-27T20:03:00.937Z,50.40
2023-01-27T20:08:13.975Z,47.70
2023-01-27T20:13:22.095Z,48.00
2023-01-27T20:18:28.928Z,46.80
2023-01-27T20:23:36.024Z,46.60
2023-01-27T20:28:48.350Z,51.80
2023-01-27T20:33:55.483Z,46.40
2023-01-27T20:39:02.888Z,46.80
2023-01-27T20:44:13.536Z,43.40
2023-01-27T20:49:20.523Z,43.10
2023-01-27T20:54:28.556Z,39.20
2023-01-27T20:59:35.857Z,42.60
2023-01-27T21:04:43.006Z,39.80
2023-01-27T21:09:50.818Z,46.10
2023-01-27T21:14:58.011Z,42.40
2023-01-27T21:20:05.336Z,43.30
2023-01-27T21:25:13.613Z,46.60
2023-01-27T21:30:20.897Z,44.60
2023-01-27T21:35:27.892Z,45.00
2023-01-27T21:40:34.968Z,45.80
2023-01-27T21:45:41.989Z,41.30
2023-01-27T21:50:54.193Z,41.10
2023-01-27T22:01:13.044Z,34.90
2023-01-27T22:06:20.163Z,37.90
2023-01-27T22:11:27.100Z,38.10
2023-01-27T22:16:34.545Z,41.70
2023-01-27T22:21:41.700Z,43.30
2023-01-27T22:26:48.730Z,45.40
2023-01-27T22:31:56.208Z,42.90
2023-01-27T22:37:04.066Z,43.20
2023-01-27T22:42:11.314Z,44.20
2023-01-27T22:47:20.617Z,44.30
2023-01-27T22:52:27.688Z,46.40
2023-01-27T22:57:35.160Z,41.10
2023-01-27T23:02:42.158Z,42.60
2023-01-27T23:07:50.529Z,42.00
2023-01-27T23:12:57.432Z,39.40
2023-01-27T23:18:11.504Z,38.80
2023-01-27T23:23:19.799Z,39.70
2023-01-27T23:28:26.786Z,41.00
2023-01-27T23:33:37.452Z,43.20
2023-01-27T23:38:44.346Z,38.40
2023-01-27T23:43:56.355Z,38.70
2023-01-27T23:49:03.377Z,42.40
2023-01-27T23:54:10.406Z,39.60
2023-01-27T23:59:17.694Z,39.40
